Aviation Digital Data Service (ADDS)

Output produced by TAFs form (2049 UTC 15 August 2018)
found at http://aviationweather.gov/adds/tafs/
 
KEMT 152045Z 20008KT 10SM CLR 32/16 A2988
KPOC 151947Z 23005KT 10SM CLR 27/16 A2996
KFUL 151953Z 23007KT 180V270 10SM CLR 29/18 A2989 RMK AO2 SLP119 T02940178
KBUR 151953Z 21005KT 10SM CLR 30/17 A2990 RMK AO2 SLP111 T03000167
KBUR 151734Z 1518/1618 00000KT P6SM SKC 
     FM152000 17010KT P6SM SKC 
     FM160400 13007KT P6SM SKC 
     FM160800 VRB05KT P6SM SKC 
     FM161600 14005KT P6SM SKC
       
KONT 151953Z 26008KT 10SM FEW110 32/16 A2990 RMK AO2 SLP107 CB DSNT E TCU DSNT SE T03170161
KONT 151733Z 1518/1624 23006KT P6SM FEW100 
     FM151900 26011KT P6SM SCT100 SCT250 
     FM160500 VRB05KT P6SM SCT100 
     FM162000 26012KT P6SM BKN100
       
KCNO 151953Z 26008KT 10SM SCT120 34/16 A2990 RMK AO2 SLP118 T03390161
KAJO 151956Z AUTO 28010KT 10SM CLR 31/18 A2989 RMK AO2 SLP125 T03110178 $
KLGB 151953Z 19008KT 10SM CLR 26/19 A2991 RMK AO2 SLP126 T02610189
KLGB 151734Z 1518/1618 17003KT P6SM FEW022 
     FM151900 20008KT P6SM SKC 
     FM152300 29008KT P6SM SKC 
     FM160500 VRB03KT P6SM SKC 
     FM161000 VRB03KT P6SM BKN011 
     FM161600 16005KT P6SM SCT015
       
KTOA 152047Z 28015KT 10SM SKC 26/19 A2989
KHHR 151953Z 25006KT 10SM CLR 26/19 A2991 RMK AO2 SLP128 T02560189
KLAX 151953Z 25011KT 10SM FEW025 26/19 A2992 RMK AO2 SLP128 T02560189
KLAX 152041Z 1521/1624 25011KT P6SM FEW025 
     FM160400 26006KT P6SM FEW010 
     FM160800 VRB03KT P6SM BKN011 
     FM161600 26006KT P6SM SCT015 
     FM162000 26012KT P6SM SKC
       
KAVX 151851Z AUTO 28004KT 10SM CLR 23/17 A2998 RMK AO2 SLP128 T02330172 $
KSMO 151951Z AUTO 22010KT 10SM CLR 27/18 A2991 RMK AO2 SLP128 T02720183 $
KSMO 151734Z 1518/1618 23006KT P6SM FEW019 
     FM152000 23010KT P6SM SKC 
     FM160300 23006KT P6SM SCT010 
     FM161000 VRB05KT P6SM BKN011 
     FM161600 VRB03KT P6SM SCT015
       
KCMA 151955Z 26008KT 10SM CLR 27/17 A2991 RMK AO2 SLP135 T02720172
KCMA 151734Z 1518/1618 25003KT P6SM SKC 
     FM152000 24008KT P6SM SKC 
     FM160300 VRB05KT P6SM SKC 
     FM161200 VRB03KT P6SM BKN011 
     FM161600 VRB03KT P6SM SCT014
       
KOXR 151951Z 27010KT 10SM CLR 24/18 A2992 RMK AO2 SLP129 T02390178
KOXR 151734Z 1518/1618 22006KT P6SM SCT020 
     FM152000 27012KT P6SM SKC 
     FM160400 VRB05KT P6SM SKC 
     FM161200 VRB03KT P6SM BKN012 
     FM161600 22006KT P6SM SCT015
       
KRAL 151953Z VRB05KT 10SM CLR 32/16 A2989 RMK AO2 SLP106 T03170156
KRIV 151958Z AUTO 30009KT 10SM CLR 32/13 A2992 RMK AO2 SLP117 T03240131
TAF KRIV 152000Z 1520/1702 31009KT 9999 FEW100 QNH2990INS 
     TEMPO 1521/1602 31012G18KT TS OMTNS NE-SE 
     BECMG 1606/1607 VRB04KT 9999 SKC QNH2997INS 
     BECMG 1617/1618 31009KT 9999 FEW090 QNH2999INS 
     TEMPO 1621/1702 31010G18KT TS OMTNS NE-SE TX34/1521Z TN19/1613Z
       
KF70 152035Z AUTO 18009G15KT 10SM CLR 31/17 A2991 RMK AO1
KRNM 151953Z COR 24008KT 10SM CLR 30/17 A2993 RMK AO2 SLP118 T03000172 TCU DSNT N THRU SE
KCRQ 151953Z 24007KT 10SM FEW020 24/18 A2991 RMK AO2 SLP125 T02390183
KCRQ 151733Z 1518/1618 25006KT P6SM OVC019 
     FM152000 25009KT P6SM SCT020 SCT070 
     FM160100 26005KT P6SM SCT018 SCT100 
     FM160300 26004KT P6SM OVC015
       
KOKB 151952Z AUTO 27008KT 10SM CLR 27/18 A2990 RMK AO2 SLP125 T02720178
KIZA 152035Z AUTO 27009KT 10SM CLR 28/15 A2992 RMK AO2